createdAt,value
2019-05-29T00:00:48.974Z,99.99
2019-05-29T00:01:48.925Z,99.99
2019-05-29T00:02:48.891Z,99.99
2019-05-29T00:03:48.866Z,99.99
2019-05-29T00:04:48.828Z,99.99
2019-05-29T00:05:49.805Z,99.99
2019-05-29T00:06:48.783Z,99.99
2019-05-29T00:07:48.756Z,99.99
2019-05-29T00:08:48.801Z,99.99
2019-05-29T00:09:48.699Z,99.99
2019-05-29T00:10:48.659Z,99.99
2019-05-29T00:11:49.643Z,99.99
2019-05-29T00:12:48.603Z,99.99
2019-05-29T00:13:49.602Z,99.99
2019-05-29T00:14:48.549Z,99.99
2019-05-29T00:15:48.528Z,99.99
2019-05-29T00:16:48.490Z,99.99
2019-05-29T00:17:48.455Z,99.99
2019-05-29T00:18:48.436Z,99.99
2019-05-29T00:19:48.402Z,99.99
2019-05-29T00:20:48.373Z,99.99
2019-05-29T00:21:49.352Z,99.99
2019-05-29T00:22:48.317Z,99.99
2019-05-29T00:23:48.291Z,99.99
2019-05-29T00:24:48.259Z,99.99
2019-05-29T00:25:48.228Z,99.99
2019-05-29T00:26:48.206Z,99.99
2019-05-29T00:27:48.178Z,99.99
2019-05-29T00:28:48.147Z,99.99
2019-05-29T00:29:50.123Z,99.99
2019-05-29T00:30:48.089Z,99.99
2019-05-29T00:31:56.087Z,99.99
2019-05-29T00:32:48.025Z,99.99
2019-05-29T00:33:48.000Z,99.99
2019-05-29T00:34:47.966Z,99.99
2019-05-29T00:35:47.954Z,99.99
2019-05-29T00:36:47.908Z,99.99
2019-05-29T00:37:48.928Z,99.99
2019-05-29T00:38:48.090Z,99.99
2019-05-29T00:39:54.535Z,99.99
2019-05-29T00:40:47.794Z,99.99
2019-05-29T00:41:54.526Z,99.99
2019-05-29T00:42:47.733Z,99.99
2019-05-29T00:43:47.724Z,99.99
2019-05-29T00:44:47.673Z,99.99
2019-05-29T00:45:47.655Z,99.99
2019-05-29T00:46:47.644Z,99.99
2019-05-29T00:47:47.591Z,99.99
2019-05-29T00:48:47.559Z,99.99
2019-05-29T00:49:48.538Z,99.99
2019-05-29T00:50:47.508Z,99.99
2019-05-29T00:51:49.485Z,99.99
2019-05-29T00:52:47.445Z,99.99
2019-05-29T00:53:47.428Z,99.99
2019-05-29T00:54:47.401Z,99.99
2019-05-29T00:55:47.362Z,99.99
2019-05-29T00:56:49.341Z,99.99
2019-05-29T00:57:47.301Z,99.99
2019-05-29T00:58:49.276Z,99.99
2019-05-29T00:59:47.266Z,99.99
2019-05-29T01:00:47.216Z,99.99
2019-05-29T01:01:47.195Z,99.99
2019-05-29T01:02:47.324Z,99.99
2019-05-29T01:03:47.134Z,99.99
2019-05-29T01:04:48.121Z,99.99
2019-05-29T01:05:47.063Z,99.99
2019-05-29T01:06:47.043Z,99.99
2019-05-29T01:07:47.013Z,99.99
2019-05-29T01:08:53.527Z,99.99
2019-05-29T01:09:46.957Z,99.99
2019-05-29T01:10:46.940Z,99.99
2019-05-29T01:11:46.896Z,99.99
2019-05-29T01:12:53.554Z,99.99
2019-05-29T01:13:46.842Z,99.99
2019-05-29T01:15:01.526Z,99.99
2019-05-29T01:15:46.790Z,99.99
2019-05-29T01:16:46.767Z,99.99
2019-05-29T01:17:46.720Z,99.99
2019-05-29T01:18:46.707Z,99.99
2019-05-29T01:19:46.668Z,99.99
2019-05-29T01:20:46.638Z,99.99
2019-05-29T01:21:46.627Z,99.99
2019-05-29T01:22:47.587Z,99.99
2019-05-29T01:23:46.542Z,99.99
2019-05-29T01:24:46.529Z,99.99
2019-05-29T01:25:46.477Z,99.99
2019-05-29T01:26:46.462Z,99.99
2019-05-29T01:27:46.428Z,99.99
2019-05-29T01:28:46.408Z,99.99
2019-05-29T01:29:46.371Z,99.99
2019-05-29T01:30:46.348Z,99.99
2019-05-29T01:31:46.309Z,99.99
2019-05-29T01:32:46.305Z,99.99
2019-05-29T01:33:46.257Z,99.99
2019-05-29T01:34:46.232Z,99.99
2019-05-29T01:35:46.203Z,99.99
2019-05-29T01:36:46.185Z,99.99
2019-05-29T01:37:46.157Z,99.99
2019-05-29T01:38:46.110Z,99.99
2019-05-29T01:39:46.081Z,99.99
2019-05-29T01:40:46.067Z,99.99
2019-05-29T01:41:46.026Z,99.99
2019-05-29T01:42:49.628Z,99.99
2019-05-29T01:43:45.965Z,99.99
2019-05-29T01:44:45.939Z,99.99
2019-05-29T01:45:45.920Z,99.99
2019-05-29T01:46:45.885Z,99.99
2019-05-29T01:47:45.849Z,99.99
2019-05-29T01:48:45.856Z,99.99
2019-05-29T01:49:45.785Z,99.99
2019-05-29T01:50:46.772Z,99.99
2019-05-29T01:51:45.736Z,99.99
2019-05-29T01:52:45.739Z,99.99
2019-05-29T01:53:45.694Z,99.99
2019-05-29T01:54:45.645Z,99.99
2019-05-29T01:55:45.617Z,99.99
2019-05-29T01:56:45.591Z,99.99
2019-05-29T01:57:45.555Z,99.99
2019-05-29T01:58:45.534Z,99.99
2019-05-29T01:59:45.510Z,99.99
2019-05-29T02:00:45.474Z,99.99
2019-05-29T02:01:45.439Z,99.99
2019-05-29T02:02:45.417Z,99.99
2019-05-29T02:03:45.402Z,99.99
2019-05-29T02:04:45.355Z,99.99
2019-05-29T02:05:45.324Z,99.99
2019-05-29T02:06:45.299Z,99.99
2019-05-29T02:07:45.273Z,99.99
2019-05-29T02:08:45.236Z,99.99
2019-05-29T02:09:45.207Z,99.99
2019-05-29T02:10:46.182Z,99.99
2019-05-29T02:11:45.157Z,99.99
2019-05-29T02:12:45.130Z,99.99
2019-05-29T02:13:45.086Z,99.99
2019-05-29T02:14:45.067Z,99.99
2019-05-29T02:15:45.032Z,99.99
2019-05-29T02:16:45.068Z,99.99
2019-05-29T02:17:44.970Z,99.99
2019-05-29T02:18:44.962Z,99.99
2019-05-29T02:19:44.910Z,99.99
2019-05-29T02:20:44.883Z,99.99
2019-05-29T02:21:44.855Z,99.99
2019-05-29T02:22:44.837Z,99.99
2019-05-29T02:23:44.795Z,99.99
2019-05-29T02:24:45.789Z,99.99
2019-05-29T02:25:44.742Z,99.99
2019-05-29T02:26:45.711Z,99.99
2019-05-29T02:27:44.680Z,99.99
2019-05-29T02:28:44.661Z,99.99
2019-05-29T02:29:44.618Z,99.99
2019-05-29T02:30:45.597Z,99.99
2019-05-29T02:31:44.558Z,99.99
2019-05-29T02:32:45.546Z,99.99
2019-05-29T02:33:44.506Z,99.99
2019-05-29T02:34:45.476Z,99.99
2019-05-29T02:35:44.447Z,99.99
2019-05-29T02:36:44.424Z,99.99
2019-05-29T02:37:44.389Z,99.99
2019-05-29T02:38:53.062Z,99.99
2019-05-29T02:39:44.329Z,99.99
2019-05-29T02:40:44.303Z,99.99
2019-05-29T02:41:44.275Z,99.99
2019-05-29T02:42:44.238Z,99.99
2019-05-29T02:43:44.210Z,99.99
2019-05-29T02:44:44.179Z,99.99
2019-05-29T02:45:54.266Z,99.99
2019-05-29T02:46:44.129Z,99.99
2019-05-29T02:47:44.101Z,99.99
2019-05-29T02:48:45.061Z,99.99
2019-05-29T02:49:44.036Z,99.99
2019-05-29T02:50:44.011Z,99.99
2019-05-29T02:51:43.972Z,99.99
2019-05-29T02:52:44.950Z,99.99
2019-05-29T02:53:43.916Z,99.99
2019-05-29T02:54:44.895Z,99.99
2019-05-29T02:55:43.858Z,99.99
2019-05-29T02:56:43.829Z,99.99
2019-05-29T02:57:43.815Z,99.99
2019-05-29T02:58:43.794Z,99.99
2019-05-29T02:59:43.731Z,99.99
2019-05-29T03:00:44.722Z,99.99
2019-05-29T03:01:43.676Z,99.99
2019-05-29T03:02:43.708Z,99.99
2019-05-29T03:03:43.619Z,99.99
2019-05-29T03:04:43.600Z,99.99
2019-05-29T03:05:43.561Z,99.99
2019-05-29T03:06:43.533Z,99.99
2019-05-29T03:07:43.504Z,99.99
2019-05-29T03:08:43.475Z,99.99
2019-05-29T03:09:43.444Z,99.99
2019-05-29T03:10:43.423Z,99.99
2019-05-29T03:11:43.385Z,99.99
2019-05-29T03:12:43.363Z,99.99
2019-05-29T03:13:43.326Z,99.99
2019-05-29T03:14:43.301Z,99.99
2019-05-29T03:15:43.272Z,99.99
2019-05-29T03:16:44.248Z,99.99
2019-05-29T03:17:43.212Z,99.99
2019-05-29T03:18:44.194Z,99.99
2019-05-29T03:19:43.149Z,99.99
2019-05-29T03:20:43.120Z,99.99
2019-05-29T03:21:43.090Z,99.99
2019-05-29T03:22:43.061Z,99.99
2019-05-29T03:23:43.030Z,99.99
2019-05-29T03:24:43.009Z,99.99
2019-05-29T03:25:42.986Z,99.99
2019-05-29T03:26:42.960Z,99.99
2019-05-29T03:27:42.913Z,99.99
2019-05-29T03:28:42.885Z,99.99
2019-05-29T03:29:42.854Z,99.99
2019-05-29T03:30:46.218Z,99.99
2019-05-29T03:31:47.131Z,99.99
2019-05-29T03:32:47.700Z,99.99
2019-05-29T03:33:49.048Z,99.99
2019-05-29T03:34:46.964Z,99.99
2019-05-29T03:35:47.486Z,99.99
2019-05-29T03:36:47.739Z,99.99
2019-05-29T03:37:42.612Z,99.99
2019-05-29T03:38:42.610Z,99.99
2019-05-29T03:39:42.557Z,99.99
2019-05-29T03:40:42.539Z,99.99
2019-05-29T03:41:42.499Z,99.99
2019-05-29T03:42:42.544Z,99.99
2019-05-29T03:43:42.447Z,99.99
2019-05-29T03:44:43.415Z,99.99
2019-05-29T03:45:42.389Z,99.99
2019-05-29T03:46:45.666Z,99.99
2019-05-29T03:47:42.346Z,99.99
2019-05-29T03:48:43.301Z,99.99
2019-05-29T03:49:42.266Z,99.99
2019-05-29T03:50:42.245Z,99.99
2019-05-29T03:51:42.201Z,99.99
2019-05-29T03:52:42.176Z,99.99
2019-05-29T03:53:42.152Z,99.99
2019-05-29T03:54:42.114Z,99.99
2019-05-29T03:55:42.084Z,99.99
2019-05-29T03:56:42.060Z,99.99
2019-05-29T03:57:42.024Z,99.99
2019-05-29T03:58:42.071Z,99.99
2019-05-29T03:59:41.967Z,99.99
2019-05-29T04:00:46.692Z,99.99
2019-05-29T04:01:41.921Z,99.99
2019-05-29T04:02:42.879Z,99.99
2019-05-29T04:03:41.858Z,99.99
2019-05-29T04:04:41.817Z,99.99
2019-05-29T04:05:41.786Z,99.99
2019-05-29T04:06:41.768Z,99.99
2019-05-29T04:07:41.724Z,99.99
2019-05-29T04:08:41.706Z,99.99
2019-05-29T04:09:41.734Z,99.99
2019-05-29T04:10:41.663Z,99.99
2019-05-29T04:11:41.625Z,99.99
2019-05-29T04:12:42.588Z,99.99
2019-05-29T04:13:41.557Z,99.99
2019-05-29T04:14:41.521Z,99.99
2019-05-29T04:15:41.489Z,99.99
2019-05-29T04:16:58.286Z,99.99
2019-05-29T04:17:41.438Z,99.99
2019-05-29T04:18:41.452Z,99.99
2019-05-29T04:19:41.375Z,99.99
2019-05-29T04:20:41.356Z,99.99
2019-05-29T04:21:41.311Z,99.99
2019-05-29T04:22:41.295Z,99.99
2019-05-29T04:23:41.260Z,99.99
2019-05-29T04:24:41.240Z,99.99
2019-05-29T04:25:43.039Z,99.99
2019-05-29T04:26:41.173Z,99.99
2019-05-29T04:27:41.142Z,99.99
2019-05-29T04:28:41.113Z,99.99
2019-05-29T04:29:41.071Z,99.99
2019-05-29T04:30:41.058Z,99.99
2019-05-29T04:31:41.019Z,99.99
2019-05-29T04:32:40.999Z,99.99
2019-05-29T04:33:40.963Z,99.99
2019-05-29T04:34:40.937Z,99.99
2019-05-29T04:35:40.906Z,99.99
2019-05-29T04:36:40.876Z,99.99
2019-05-29T04:37:40.842Z,99.99
2019-05-29T04:38:40.859Z,99.99
2019-05-29T04:39:40.779Z,99.99
2019-05-29T04:40:40.870Z,99.99
2019-05-29T04:41:40.727Z,99.99
2019-05-29T04:42:40.779Z,99.99
2019-05-29T04:43:40.663Z,99.99
2019-05-29T04:44:41.234Z,99.99
2019-05-29T04:45:40.601Z,99.99
2019-05-29T04:46:40.818Z,99.99
2019-05-29T04:47:40.547Z,99.99
2019-05-29T04:48:40.741Z,99.99
2019-05-29T04:49:40.496Z,99.99
2019-05-29T04:50:40.861Z,99.99
2019-05-29T04:51:40.433Z,99.99
2019-05-29T04:52:40.647Z,99.99
2019-05-29T04:53:40.366Z,99.99
2019-05-29T04:54:40.395Z,99.99
2019-05-29T04:55:40.328Z,99.99
2019-05-29T04:56:40.298Z,99.99
2019-05-29T04:57:40.250Z,99.99
2019-05-29T04:58:40.311Z,99.99
2019-05-29T04:59:40.191Z,99.99
2019-05-29T05:00:58.199Z,99.99
2019-05-29T05:01:40.127Z,99.99
2019-05-29T05:02:40.133Z,99.99
2019-05-29T05:03:40.071Z,99.99
2019-05-29T05:04:40.056Z,99.99
2019-05-29T05:05:40.013Z,99.99
2019-05-29T05:06:40.061Z,99.99
2019-05-29T05:07:39.953Z,99.99
2019-05-29T05:08:46.628Z,99.99
2019-05-29T05:09:39.899Z,99.99
2019-05-29T05:10:41.367Z,99.99
2019-05-29T05:11:39.834Z,99.99
2019-05-29T05:12:40.198Z,99.99
2019-05-29T05:13:39.822Z,99.99
2019-05-29T05:14:39.902Z,99.99
2019-05-29T05:15:40.112Z,99.99
2019-05-29T05:16:40.010Z,99.99
2019-05-29T05:17:40.147Z,99.99
2019-05-29T05:18:40.245Z,99.99
2019-05-29T05:19:40.125Z,99.99
2019-05-29T05:20:40.352Z,99.99
2019-05-29T05:21:40.253Z,99.99
2019-05-29T05:22:40.977Z,99.99
2019-05-29T05:23:40.565Z,99.99
2019-05-29T05:24:43.438Z,99.99
2019-05-29T05:25:40.825Z,99.99
2019-05-29T05:26:40.471Z,99.99
2019-05-29T05:27:40.594Z,99.99
2019-05-29T05:28:42.182Z,99.99
2019-05-29T05:29:40.420Z,99.99
2019-05-29T05:30:40.639Z,99.99
2019-05-29T05:31:39.260Z,99.99
2019-05-29T05:32:39.329Z,99.99
2019-05-29T05:33:39.189Z,99.99
2019-05-29T05:34:39.415Z,99.99
2019-05-29T05:35:39.140Z,99.99
2019-05-29T05:36:39.145Z,99.99
2019-05-29T05:37:39.067Z,99.99
2019-05-29T05:38:41.079Z,99.99
2019-05-29T05:39:39.123Z,99.99
2019-05-29T05:40:41.289Z,99.99
2019-05-29T05:41:39.049Z,99.99
2019-05-29T05:42:41.164Z,99.99
2019-05-29T05:43:39.037Z,99.99
2019-05-29T05:44:39.113Z,99.99
2019-05-29T05:45:39.226Z,99.99
2019-05-29T05:46:47.715Z,99.99
2019-05-29T05:47:50.463Z,99.99
2019-05-29T05:48:39.252Z,99.99
2019-05-29T05:49:39.535Z,99.99
2019-05-29T05:50:39.409Z,99.99
2019-05-29T05:51:42.778Z,99.99
2019-05-29T05:52:39.498Z,99.99
2019-05-29T05:53:39.481Z,99.99
2019-05-29T05:54:39.554Z,99.99
2019-05-29T05:55:39.824Z,99.99
2019-05-29T05:56:39.653Z,99.99
2019-05-29T05:57:39.524Z,99.99
2019-05-29T05:58:39.819Z,99.99
2019-05-29T05:59:38.426Z,99.99
2019-05-29T06:00:38.438Z,99.99
2019-05-29T06:01:38.365Z,99.99
2019-05-29T06:02:38.342Z,99.99
2019-05-29T06:03:38.416Z,99.99
2019-05-29T06:04:38.270Z,99.99
2019-05-29T06:05:38.350Z,99.99
2019-05-29T06:06:38.214Z,99.99
2019-05-29T06:07:38.305Z,99.99
2019-05-29T06:08:38.164Z,99.99
2019-05-29T06:09:38.268Z,99.99
2019-05-29T06:10:38.217Z,99.99
2019-05-29T06:11:38.351Z,99.99
2019-05-29T06:12:38.629Z,99.99
2019-05-29T06:13:38.394Z,99.99
2019-05-29T06:14:38.456Z,99.99
2019-05-29T06:15:38.459Z,99.99
2019-05-29T06:16:38.623Z,99.99
2019-05-29T06:17:38.776Z,99.99
2019-05-29T06:18:38.498Z,99.99
2019-05-29T06:19:38.993Z,99.99
2019-05-29T06:20:39.009Z,99.99
2019-05-29T06:21:38.803Z,99.99
2019-05-29T06:22:38.984Z,99.99
2019-05-29T06:23:38.836Z,99.99
2019-05-29T06:24:38.809Z,99.99
2019-05-29T06:25:39.942Z,99.99
2019-05-29T06:26:39.029Z,99.99
2019-05-29T06:27:37.588Z,99.99
2019-05-29T06:28:37.608Z,99.99
2019-05-29T06:29:37.529Z,99.99
2019-05-29T06:30:39.331Z,99.99
2019-05-29T06:31:37.480Z,99.99
2019-05-29T06:32:37.531Z,99.99
2019-05-29T06:33:37.459Z,99.99
2019-05-29T06:34:37.541Z,99.99
2019-05-29T06:35:37.635Z,99.99
2019-05-29T06:36:37.932Z,99.99
2019-05-29T06:37:44.178Z,99.99
2019-05-29T06:38:37.650Z,99.99
2019-05-29T06:39:37.657Z,99.99
2019-05-29T06:40:38.194Z,99.99
2019-05-29T06:41:37.802Z,99.99
2019-05-29T06:42:37.813Z,99.99
2019-05-29T06:43:39.872Z,99.99
2019-05-29T06:44:39.319Z,99.99
2019-05-29T06:45:37.820Z,99.99
2019-05-29T06:46:38.342Z,99.99
2019-05-29T06:47:38.640Z,99.99
2019-05-29T06:48:44.802Z,99.99
2019-05-29T06:49:37.956Z,99.99
2019-05-29T06:50:37.349Z,99.99
2019-05-29T06:51:43.667Z,99.99
2019-05-29T06:52:37.409Z,99.99
2019-05-29T06:53:37.941Z,99.99
2019-05-29T06:54:37.807Z,99.99
2019-05-29T06:55:37.926Z,99.99
2019-05-29T06:56:37.740Z,99.99
2019-05-29T06:57:37.988Z,99.99
2019-05-29T06:58:37.962Z,99.99
2019-05-29T06:59:36.660Z,99.99
2019-05-29T07:00:38.106Z,99.99
2019-05-29T07:01:37.387Z,99.99
2019-05-29T07:02:36.576Z,99.99
2019-05-29T07:03:37.634Z,99.99
2019-05-29T07:04:36.512Z,99.99
2019-05-29T07:05:37.681Z,99.99
2019-05-29T07:06:36.567Z,99.99
2019-05-29T07:07:36.421Z,99.99
2019-05-29T07:08:39.926Z,99.99
2019-05-29T07:09:36.880Z,99.99
2019-05-29T07:10:36.479Z,99.99
2019-05-29T07:11:37.100Z,99.99
2019-05-29T07:12:36.422Z,99.99
2019-05-29T07:13:38.391Z,99.99
2019-05-29T07:14:36.432Z,99.99
2019-05-29T07:15:36.449Z,99.99
2019-05-29T07:16:45.367Z,99.99
2019-05-29T07:17:36.372Z,99.99
2019-05-29T07:18:36.535Z,99.99
2019-05-29T07:19:48.946Z,99.99
2019-05-29T07:20:36.545Z,99.99
2019-05-29T07:21:36.727Z,99.99
2019-05-29T07:22:36.975Z,99.99
2019-05-29T07:23:36.633Z,99.99
2019-05-29T07:24:37.007Z,99.99
2019-05-29T07:25:36.802Z,99.99
2019-05-29T07:26:36.925Z,99.99
2019-05-29T07:27:36.857Z,99.99
2019-05-29T07:28:37.199Z,99.99
2019-05-29T07:29:36.978Z,99.99
2019-05-29T07:30:37.248Z,99.99
2019-05-29T07:31:36.817Z,99.99
2019-05-29T07:32:38.064Z,99.99
2019-05-29T07:33:35.644Z,99.99
2019-05-29T07:34:51.303Z,99.99
2019-05-29T07:35:35.579Z,99.99
2019-05-29T07:36:35.570Z,99.99
2019-05-29T07:37:35.517Z,99.99
2019-05-29T07:38:35.495Z,99.99
2019-05-29T07:39:35.471Z,99.99
2019-05-29T07:40:35.961Z,99.99
2019-05-29T07:41:35.413Z,99.99
2019-05-29T07:42:35.383Z,99.99
2019-05-29T07:43:35.352Z,99.99
2019-05-29T07:44:35.318Z,99.99
2019-05-29T07:45:35.397Z,99.99
2019-05-29T07:46:35.265Z,99.99
2019-05-29T07:47:35.227Z,99.99
2019-05-29T07:48:35.200Z,99.99
2019-05-29T07:49:38.906Z,99.99
2019-05-29T07:50:35.135Z,99.99
2019-05-29T07:51:35.135Z,99.99
2019-05-29T07:52:35.107Z,99.99
2019-05-29T07:53:35.142Z,99.99
2019-05-29T07:54:35.019Z,99.99
2019-05-29T07:55:35.059Z,99.99
2019-05-29T07:56:34.961Z,99.99
2019-05-29T07:57:34.968Z,99.99
2019-05-29T07:58:34.908Z,99.99
2019-05-29T07:59:34.982Z,99.99
2019-05-29T08:00:37.961Z,99.99
2019-05-29T08:01:34.819Z,99.99
2019-05-29T08:02:34.786Z,99.99
2019-05-29T08:03:34.810Z,99.99
2019-05-29T08:04:34.722Z,99.99
2019-05-29T08:05:34.797Z,99.99
2019-05-29T08:06:34.667Z,99.99
2019-05-29T08:07:34.715Z,99.99
2019-05-29T08:08:34.602Z,99.99
2019-05-29T08:09:34.632Z,99.99
2019-05-29T08:10:34.543Z,99.99
2019-05-29T08:11:36.593Z,99.99
2019-05-29T08:12:34.493Z,99.99
2019-05-29T08:13:34.466Z,99.99
2019-05-29T08:14:34.426Z,99.99
2019-05-29T08:15:42.918Z,99.99
2019-05-29T08:16:34.358Z,99.80
2019-05-29T08:17:34.344Z,99.99
2019-05-29T08:18:34.325Z,98.37
2019-05-29T08:19:34.268Z,99.71
2019-05-29T08:20:34.258Z,99.99
2019-05-29T08:21:34.218Z,98.71
2019-05-29T08:22:35.003Z,97.75
2019-05-29T08:23:34.155Z,93.55
2019-05-29T08:24:34.123Z,92.31
2019-05-29T08:25:34.134Z,93.65
2019-05-29T08:26:34.071Z,92.50
2019-05-29T08:27:34.043Z,93.36
2019-05-29T08:28:34.004Z,99.99
2019-05-29T08:29:33.971Z,99.99
2019-05-29T08:30:33.944Z,97.66
2019-05-29T08:31:33.914Z,99.95
2019-05-29T08:32:33.982Z,98.13
2019-05-29T08:33:33.871Z,95.94
2019-05-29T08:34:33.848Z,95.08
2019-05-29T08:35:33.794Z,97.08
2019-05-29T08:36:33.766Z,95.46
2019-05-29T08:37:33.734Z,99.99
2019-05-29T08:38:33.705Z,99.99
2019-05-29T08:39:36.886Z,98.85
2019-05-29T08:40:33.654Z,93.98
2019-05-29T08:41:33.629Z,92.16
2019-05-29T08:42:33.583Z,96.17
2019-05-29T08:43:33.660Z,96.46
2019-05-29T08:44:33.532Z,95.22
2019-05-29T08:45:33.505Z,88.63
2019-05-29T08:46:33.662Z,89.11
2019-05-29T08:47:33.439Z,92.97
2019-05-29T08:48:33.403Z,93.45
2019-05-29T08:49:33.405Z,96.13
2019-05-29T08:50:33.363Z,96.99
2019-05-29T08:51:33.381Z,93.26
2019-05-29T08:52:33.293Z,93.55
2019-05-29T08:53:33.285Z,95.65
2019-05-29T08:54:33.235Z,92.54
2019-05-29T08:55:33.204Z,88.62
2019-05-29T08:56:33.185Z,88.72
2019-05-29T08:57:33.148Z,95.41
2019-05-29T08:58:33.124Z,96.66
2019-05-29T08:59:33.088Z,93.60
2019-05-29T09:00:33.062Z,92.45
2019-05-29T09:01:33.036Z,92.16
2019-05-29T09:02:33.014Z,86.33
2019-05-29T09:03:32.972Z,88.24
2019-05-29T09:04:32.963Z,91.59
2019-05-29T09:05:32.920Z,90.73
2019-05-29T09:06:32.886Z,91.39
2019-05-29T09:07:32.858Z,92.07
2019-05-29T09:08:32.824Z,94.07
2019-05-29T09:09:32.897Z,92.25
2019-05-29T09:10:32.768Z,88.24
2019-05-29T09:11:32.808Z,85.99
2019-05-29T09:12:32.709Z,83.03
2019-05-29T09:13:32.713Z,86.57
2019-05-29T09:14:32.652Z,88.38
2019-05-29T09:15:32.620Z,86.57
2019-05-29T09:16:32.598Z,88.00
2019-05-29T09:17:34.577Z,88.00
2019-05-29T09:18:32.558Z,88.09
2019-05-29T09:19:32.522Z,91.25
2019-05-29T09:21:00.071Z,91.49
2019-05-29T09:21:32.667Z,88.81
2019-05-29T09:22:32.437Z,88.13
2019-05-29T09:23:32.404Z,83.83
2019-05-29T09:24:32.367Z,79.91
2019-05-29T09:25:32.338Z,80.67
2019-05-29T09:26:32.328Z,83.64
2019-05-29T09:27:32.302Z,85.84
2019-05-29T09:28:32.253Z,83.83
2019-05-29T09:29:32.223Z,81.05
2019-05-29T09:30:32.219Z,77.23
2019-05-29T09:31:32.186Z,80.58
2019-05-29T09:32:49.623Z,80.29
2019-05-29T09:33:32.135Z,81.92
2019-05-29T09:34:32.085Z,84.69
2019-05-29T09:35:32.054Z,80.96
2019-05-29T09:36:32.040Z,80.25
2019-05-29T09:37:32.065Z,80.63
2019-05-29T09:38:31.973Z,82.45
2019-05-29T09:39:31.937Z,82.45
2019-05-29T09:40:31.931Z,81.68
2019-05-29T09:41:31.880Z,79.39
2019-05-29T09:42:32.928Z,78.63
2019-05-29T09:43:31.880Z,77.48
2019-05-29T09:44:38.861Z,77.95
2019-05-29T09:45:31.769Z,78.72
2019-05-29T09:46:31.837Z,78.53
2019-05-29T09:47:31.710Z,79.10
2019-05-29T09:48:31.953Z,83.89
2019-05-29T09:49:31.657Z,83.93
2019-05-29T09:50:48.843Z,79.81
2019-05-29T09:51:31.671Z,80.67
2019-05-29T09:52:31.582Z,81.05
2019-05-29T09:53:31.553Z,80.77
2019-05-29T09:54:31.705Z,83.83
2019-05-29T09:55:31.512Z,84.59
2019-05-29T09:56:31.453Z,78.95
2019-05-29T09:57:31.423Z,81.38
2019-05-29T09:58:31.421Z,82.82
2019-05-29T09:59:31.371Z,84.39
2019-05-29T10:00:31.353Z,82.38
2019-05-29T10:01:31.310Z,78.69
2019-05-29T10:02:31.300Z,76.57
2019-05-29T10:03:31.257Z,75.71
2019-05-29T10:04:31.223Z,76.39
2019-05-29T10:05:31.199Z,77.73
2019-05-29T10:06:31.178Z,77.63
2019-05-29T10:07:31.185Z,78.25
2019-05-29T10:08:31.143Z,76.14
2019-05-29T10:09:31.093Z,73.26
2019-05-29T10:10:31.069Z,75.37
2019-05-29T10:11:31.053Z,76.71
2019-05-29T10:12:31.002Z,74.22
2019-05-29T10:13:30.967Z,71.05
2019-05-29T10:14:30.948Z,72.20
2019-05-29T10:15:30.946Z,72.88
2019-05-29T10:16:30.979Z,69.29
2019-05-29T10:17:31.100Z,69.39
2019-05-29T10:18:32.670Z,71.11
2019-05-29T10:19:30.861Z,71.69
2019-05-29T10:20:30.815Z,74.57
2019-05-29T10:21:40.119Z,74.47
2019-05-29T10:22:30.725Z,73.99
2019-05-29T10:23:30.707Z,73.38
2019-05-29T10:24:32.467Z,76.06
2019-05-29T10:25:30.648Z,75.52
2019-05-29T10:26:30.633Z,74.57
2019-05-29T10:27:30.593Z,76.77
2019-05-29T10:29:30.620Z,73.07
2019-05-29T10:30:30.509Z,73.70
2019-05-29T10:31:30.497Z,74.95
2019-05-29T10:32:30.483Z,74.60
2019-05-29T10:32:52.796Z,76.00
2019-05-29T10:33:30.438Z,74.89
2019-05-29T10:34:30.397Z,77.33
2019-05-29T10:35:30.378Z,75.02
2019-05-29T10:36:30.344Z,69.84
2019-05-29T10:37:30.327Z,69.62
2019-05-29T10:38:30.372Z,70.38
2019-05-29T10:39:30.255Z,73.45
2019-05-29T10:40:30.241Z,70.96
2019-05-29T10:41:30.212Z,68.59
2019-05-29T10:42:30.170Z,72.49
2019-05-29T10:43:34.006Z,74.64
2019-05-29T10:44:30.205Z,74.83
2019-05-29T10:45:30.106Z,70.80
2019-05-29T10:46:30.115Z,69.65
2019-05-29T10:47:30.041Z,70.03
2019-05-29T10:48:31.056Z,69.65
2019-05-29T10:49:29.990Z,69.56
2019-05-29T10:50:30.032Z,68.98
2019-05-29T10:51:29.943Z,67.92
2019-05-29T10:52:29.945Z,67.06
2019-05-29T10:53:29.874Z,67.63
2019-05-29T10:54:29.985Z,68.40
2019-05-29T10:55:29.857Z,69.74
2019-05-29T10:56:29.914Z,71.19
2019-05-29T10:57:29.790Z,71.41
2019-05-29T10:58:29.883Z,67.86
2019-05-29T10:59:29.720Z,69.68
2019-05-29T11:00:29.779Z,72.47
2019-05-29T11:01:29.678Z,67.76
2019-05-29T11:02:29.694Z,65.69
2019-05-29T11:03:29.601Z,67.09
2019-05-29T11:04:29.693Z,68.63
2019-05-29T11:05:29.563Z,68.08
2019-05-29T11:06:29.607Z,68.18
2019-05-29T11:07:29.486Z,67.80
2019-05-29T11:08:29.521Z,68.57
2019-05-29T11:09:43.373Z,65.72
2019-05-29T11:10:29.421Z,64.37
2019-05-29T11:11:29.435Z,65.33
2019-05-29T11:12:29.356Z,65.62
2019-05-29T11:13:29.494Z,64.95
2019-05-29T11:14:29.307Z,63.70
2019-05-29T11:15:29.427Z,64.85
2019-05-29T11:16:29.244Z,64.95
2019-05-29T11:17:29.278Z,63.79
2019-05-29T11:18:29.206Z,65.14
2019-05-29T11:19:29.301Z,63.73
2019-05-29T11:20:29.141Z,63.25
2019-05-29T11:21:29.212Z,63.64
2019-05-29T11:22:29.090Z,61.71
2019-05-29T11:23:29.124Z,61.43
2019-05-29T11:24:29.053Z,61.61
2019-05-29T11:25:29.137Z,62.96
2019-05-29T11:26:28.978Z,62.68
2019-05-29T11:27:29.047Z,62.29
2019-05-29T11:28:28.926Z,61.61
2019-05-29T11:29:28.958Z,63.06
2019-05-29T11:30:28.960Z,62.99
2019-05-29T11:31:29.009Z,60.01
2019-05-29T11:32:28.841Z,58.67
2019-05-29T11:33:28.893Z,58.47
2019-05-29T11:34:28.777Z,56.74
2019-05-29T11:35:28.792Z,57.22
2019-05-29T11:36:28.724Z,57.80
2019-05-29T11:37:28.808Z,56.84
2019-05-29T11:38:28.653Z,56.55
2019-05-29T11:39:28.727Z,57.60
2019-05-29T11:40:28.846Z,55.68
2019-05-29T11:41:28.625Z,54.91
2019-05-29T11:42:28.567Z,53.86
2019-05-29T11:43:28.649Z,55.01
2019-05-29T11:44:28.487Z,53.35
2019-05-29T11:45:28.574Z,55.46
2019-05-29T11:46:28.441Z,55.76
2019-05-29T11:47:28.461Z,56.43
2019-05-29T11:48:28.383Z,54.79
2019-05-29T11:49:28.475Z,54.41
2019-05-29T11:50:28.322Z,57.58
2019-05-29T11:51:29.411Z,57.68
2019-05-29T11:52:41.677Z,57.22
2019-05-29T11:53:28.256Z,57.32
2019-05-29T11:54:28.317Z,57.13
2019-05-29T11:55:28.201Z,56.07
2019-05-29T11:56:28.320Z,54.34
2019-05-29T11:57:28.145Z,53.57
2019-05-29T11:58:31.452Z,55.78
2019-05-29T11:59:28.130Z,52.80
2019-05-29T12:00:28.135Z,53.76
2019-05-29T12:01:28.040Z,52.70
2019-05-29T12:02:28.009Z,51.23
2019-05-29T12:03:28.056Z,52.20
2019-05-29T12:04:27.973Z,52.48
2019-05-29T12:05:27.919Z,53.64
2019-05-29T12:06:28.993Z,54.69
2019-05-29T12:07:27.881Z,55.46
2019-05-29T12:08:27.844Z,54.43
2019-05-29T12:09:32.915Z,54.41
2019-05-29T12:10:27.789Z,54.99
2019-05-29T12:11:27.804Z,57.22
2019-05-29T12:12:27.767Z,54.82
2019-05-29T12:13:27.831Z,51.93
2019-05-29T12:14:27.694Z,52.42
2019-05-29T12:15:27.722Z,52.51
2019-05-29T12:16:27.638Z,54.34
2019-05-29T12:17:27.843Z,54.53
2019-05-29T12:18:27.639Z,53.57
2019-05-29T12:19:27.565Z,55.88
2019-05-29T12:20:29.057Z,54.91
2019-05-29T12:21:27.507Z,53.19
2019-05-29T12:22:27.565Z,53.09
2019-05-29T12:23:27.458Z,51.53
2019-05-29T12:24:27.475Z,50.46
2019-05-29T12:25:27.390Z,50.92
2019-05-29T12:26:27.391Z,52.17
2019-05-29T12:27:27.355Z,54.06
2019-05-29T12:28:27.322Z,51.28
2019-05-29T12:29:27.310Z,54.57
2019-05-29T12:30:27.260Z,54.00
2019-05-29T12:31:27.298Z,54.22
2019-05-29T12:32:27.206Z,53.64
2019-05-29T12:33:27.261Z,51.72
2019-05-29T12:34:28.244Z,52.22
2019-05-29T12:35:27.141Z,52.77
2019-05-29T12:36:27.123Z,54.05
2019-05-29T12:37:27.140Z,54.53
2019-05-29T12:38:27.057Z,53.31
2019-05-29T12:39:27.049Z,51.09
2019-05-29T12:40:27.032Z,52.44
2019-05-29T12:41:27.070Z,49.07
2019-05-29T12:42:26.975Z,48.95
2019-05-29T12:43:34.767Z,50.68
2019-05-29T12:44:26.885Z,51.29
2019-05-29T12:45:26.890Z,51.55
2019-05-29T12:46:26.825Z,52.51
2019-05-29T12:47:26.906Z,51.26
2019-05-29T12:48:26.798Z,51.64
2019-05-29T12:49:42.786Z,53.19
2019-05-29T12:50:26.753Z,53.66
2019-05-29T12:52:26.672Z,52.80
2019-05-29T12:53:30.779Z,51.43